createdAt,value
2023-10-24T00:02:25.130Z,10.71
2023-10-24T00:04:51.672Z,10.60
2023-10-24T00:07:18.190Z,10.61
2023-10-24T00:09:44.723Z,10.58
2023-10-24T00:12:11.203Z,10.56
2023-10-24T00:14:37.810Z,10.51
2023-10-24T00:17:05.151Z,10.48
2023-10-24T00:19:31.786Z,10.43
2023-10-24T00:21:58.450Z,10.43
2023-10-24T00:24:27.048Z,10.44
2023-10-24T00:26:53.559Z,10.50
2023-10-24T00:29:20.045Z,10.58
2023-10-24T00:31:46.645Z,10.54
2023-10-24T00:34:13.924Z,10.52
2023-10-24T00:36:42.014Z,10.50
2023-10-24T00:39:09.623Z,10.60
2023-10-24T00:41:36.475Z,10.71
2023-10-24T00:44:03.159Z,10.68
2023-10-24T00:46:30.997Z,10.73
2023-10-24T00:48:58.176Z,10.76
2023-10-24T00:51:24.903Z,10.81
2023-10-24T00:53:53.126Z,10.85
2023-10-24T00:56:21.602Z,10.84
2023-10-24T00:58:49.442Z,10.91
2023-10-24T01:01:16.698Z,10.92
2023-10-24T01:03:44.275Z,10.91
2023-10-24T01:06:11.036Z,10.99
2023-10-24T01:08:37.718Z,11.05
2023-10-24T01:11:05.491Z,11.14
2023-10-24T01:13:33.161Z,11.10
2023-10-24T01:15:59.740Z,11.17
2023-10-24T01:22:13.400Z,11.21
2023-10-24T01:24:40.314Z,11.22
2023-10-24T01:27:07.054Z,11.19
2023-10-24T01:29:33.572Z,11.21
2023-10-24T01:32:00.196Z,11.16
2023-10-24T01:34:26.858Z,11.16
2023-10-24T01:36:53.400Z,11.19
2023-10-24T01:39:19.896Z,11.20
2023-10-24T01:41:46.494Z,11.19
2023-10-24T01:44:12.998Z,11.22
2023-10-24T01:46:39.563Z,11.21
2023-10-24T01:49:06.181Z,11.29
2023-10-24T01:51:32.690Z,11.29
2023-10-24T01:53:59.214Z,11.27
2023-10-24T01:56:25.758Z,11.29
2023-10-24T01:58:52.416Z,11.30
2023-10-24T02:01:18.980Z,11.37
2023-10-24T02:03:45.605Z,11.38
2023-10-24T02:06:12.419Z,11.41
2023-10-24T02:08:38.880Z,11.49
2023-10-24T02:11:05.458Z,11.51
2023-10-24T02:13:32.061Z,11.51
2023-10-24T02:15:58.637Z,11.47
2023-10-24T02:18:25.156Z,11.51
2023-10-24T02:20:51.660Z,11.53
2023-10-24T02:23:18.471Z,11.50
2023-10-24T02:25:45.070Z,11.48
2023-10-24T02:28:12.646Z,11.48
2023-10-24T02:30:39.388Z,11.47
2023-10-24T02:33:06.277Z,11.43
2023-10-24T02:35:32.854Z,11.47
2023-10-24T02:37:59.316Z,11.44
2023-10-24T02:40:25.859Z,11.48
2023-10-24T02:42:52.412Z,11.47
2023-10-24T02:45:19.109Z,11.41
2023-10-24T02:47:45.749Z,11.33
2023-10-24T02:50:12.364Z,11.44
2023-10-24T02:52:39.339Z,11.43
2023-10-24T02:55:07.052Z,11.35
2023-10-24T02:57:33.555Z,11.37
2023-10-24T03:00:00.112Z,11.38
2023-10-24T03:02:27.050Z,11.47
2023-10-24T03:04:53.584Z,11.48
2023-10-24T03:07:20.192Z,11.51
2023-10-24T03:09:47.689Z,11.58
2023-10-24T03:12:14.705Z,11.63
2023-10-24T03:14:41.394Z,11.64
2023-10-24T03:17:09.648Z,11.68
2023-10-24T03:19:36.312Z,11.66
2023-10-24T03:22:02.913Z,11.65
2023-10-24T03:24:32.613Z,11.58
2023-10-24T03:26:59.155Z,11.61
2023-10-24T03:29:25.691Z,11.55
2023-10-24T03:31:52.170Z,11.52
2023-10-24T03:34:18.864Z,11.55
2023-10-24T03:36:45.556Z,11.56
2023-10-24T03:39:12.065Z,11.49
2023-10-24T03:41:38.666Z,11.54
2023-10-24T03:44:05.423Z,11.43
2023-10-24T03:46:32.091Z,11.38
2023-10-24T03:48:58.722Z,11.47
2023-10-24T03:51:26.076Z,11.46
2023-10-24T03:53:52.717Z,11.49
2023-10-24T03:56:19.272Z,11.38
2023-10-24T03:58:45.820Z,11.30
2023-10-24T04:01:12.806Z,11.37
2023-10-24T04:03:39.451Z,11.29
2023-10-24T04:06:12.643Z,11.34
2023-10-24T04:08:40.348Z,11.28
2023-10-24T04:11:17.489Z,11.26
2023-10-24T04:13:45.062Z,11.25
2023-10-24T04:16:12.216Z,11.13
2023-10-24T04:18:39.703Z,11.15
2023-10-24T04:21:06.444Z,11.11
2023-10-24T04:23:33.236Z,11.16
2023-10-24T04:25:59.734Z,11.04
2023-10-24T04:28:26.303Z,11.10
2023-10-24T04:30:53.634Z,11.04
2023-10-24T04:33:20.273Z,11.07
2023-10-24T04:35:48.605Z,11.09
2023-10-24T04:38:15.316Z,11.12
2023-10-24T04:40:41.896Z,11.14
2023-10-24T04:43:09.882Z,11.19
2023-10-24T04:45:37.713Z,11.22
2023-10-24T04:48:05.971Z,11.17
2023-10-24T04:50:36.607Z,11.28
2023-10-24T04:53:03.140Z,11.19
2023-10-24T04:55:30.012Z,11.20
2023-10-24T04:57:56.562Z,11.21
2023-10-24T05:00:23.382Z,11.27
2023-10-24T05:02:49.906Z,11.27
2023-10-24T05:05:16.532Z,11.21
2023-10-24T05:07:43.101Z,11.28
2023-10-24T05:10:11.345Z,11.46
2023-10-24T05:12:38.494Z,11.48
2023-10-24T05:15:06.171Z,11.48
2023-10-24T05:17:32.771Z,11.40
2023-10-24T05:20:00.789Z,11.48
2023-10-24T05:22:27.401Z,11.52
2023-10-24T05:24:54.086Z,11.56
2023-10-24T05:27:20.756Z,11.56
2023-10-24T05:29:47.386Z,11.54
2023-10-24T05:32:14.175Z,11.52
2023-10-24T05:34:41.052Z,11.52
2023-10-24T05:37:07.800Z,11.68
2023-10-24T05:39:34.561Z,11.69
2023-10-24T05:42:01.110Z,11.45
2023-10-24T05:44:27.602Z,11.53
2023-10-24T05:46:56.155Z,11.53
2023-10-24T05:49:23.192Z,11.48
2023-10-24T05:51:49.968Z,11.50
2023-10-24T05:54:16.627Z,11.44
2023-10-24T05:56:43.262Z,11.50
2023-10-24T05:59:09.774Z,11.52
2023-10-24T06:01:36.402Z,11.57
2023-10-24T06:04:03.059Z,11.67
2023-10-24T06:06:29.651Z,11.67
2023-10-24T06:08:56.147Z,11.70
2023-10-24T06:11:22.670Z,11.64
2023-10-24T06:13:49.222Z,11.72
2023-10-24T06:16:19.517Z,11.81
2023-10-24T06:18:46.219Z,11.86
2023-10-24T06:21:13.648Z,11.90
2023-10-24T06:23:40.448Z,11.90
2023-10-24T06:26:14.585Z,11.90
2023-10-24T06:28:41.830Z,11.87
2023-10-24T06:31:08.816Z,11.91
2023-10-24T06:33:38.361Z,11.92
2023-10-24T06:36:06.159Z,11.89
2023-10-24T06:38:32.736Z,11.95
2023-10-24T06:41:00.118Z,12.06
2023-10-24T06:43:27.393Z,12.12
2023-10-24T06:45:55.045Z,12.17
2023-10-24T06:48:21.758Z,12.16
2023-10-24T06:50:49.153Z,12.24
2023-10-24T06:53:15.787Z,12.26
2023-10-24T06:55:42.887Z,12.22
2023-10-24T06:58:09.603Z,12.34
2023-10-24T07:00:36.408Z,12.30
2023-10-24T07:03:03.026Z,12.25
2023-10-24T07:05:29.809Z,12.35
2023-10-24T07:07:56.494Z,12.34
2023-10-24T07:10:23.223Z,12.44
2023-10-24T07:12:49.934Z,12.46
2023-10-24T07:15:17.059Z,12.54
2023-10-24T07:17:44.174Z,12.68
2023-10-24T07:20:11.596Z,12.76
2023-10-24T07:22:38.373Z,12.79
2023-10-24T07:25:05.741Z,12.88
2023-10-24T07:27:32.267Z,13.00
2023-10-24T07:29:58.984Z,13.05
2023-10-24T07:32:25.648Z,13.20
2023-10-24T07:34:57.092Z,13.35
2023-10-24T07:37:25.121Z,13.54
2023-10-24T07:39:51.893Z,13.60
2023-10-24T07:42:18.446Z,13.73
2023-10-24T07:44:45.000Z,13.79
2023-10-24T07:47:11.689Z,13.97
2023-10-24T07:49:38.268Z,14.14
2023-10-24T07:52:05.168Z,13.96
2023-10-24T07:54:32.050Z,13.93
2023-10-24T07:56:59.849Z,13.88
2023-10-24T07:59:27.266Z,13.84
2023-10-24T08:01:54.402Z,13.73
2023-10-24T08:04:21.310Z,13.69
2023-10-24T08:06:47.953Z,13.78
2023-10-24T08:09:14.506Z,13.65
2023-10-24T08:11:41.656Z,13.72
2023-10-24T08:14:08.215Z,13.73
2023-10-24T08:16:34.955Z,13.87
2023-10-24T08:19:01.551Z,13.96
2023-10-24T08:21:28.141Z,13.89
2023-10-24T08:23:55.781Z,14.17
2023-10-24T08:26:22.440Z,14.27
2023-10-24T08:28:49.416Z,14.34
2023-10-24T08:31:16.134Z,14.35
2023-10-24T08:33:43.110Z,14.26
2023-10-24T08:36:09.766Z,14.23
2023-10-24T08:38:36.332Z,14.25
2023-10-24T08:41:03.516Z,14.28
2023-10-24T08:43:30.515Z,14.34
2023-10-24T08:45:58.781Z,14.53
2023-10-24T08:48:40.581Z,14.65
2023-10-24T08:51:07.332Z,14.63
2023-10-24T08:53:33.969Z,14.67
2023-10-24T08:56:01.279Z,14.66
2023-10-24T08:58:29.269Z,14.71
2023-10-24T09:00:56.031Z,14.68
2023-10-24T09:03:23.651Z,14.76
2023-10-24T09:05:50.984Z,15.02
2023-10-24T09:08:19.207Z,15.17
2023-10-24T09:10:46.628Z,15.12
2023-10-24T09:13:14.112Z,15.06
2023-10-24T09:15:40.805Z,15.06
2023-10-24T09:18:07.860Z,15.06
2023-10-24T09:20:34.805Z,14.88
2023-10-24T09:23:08.557Z,14.67
2023-10-24T09:25:35.596Z,14.52
2023-10-24T09:28:19.303Z,14.32
2023-10-24T09:30:46.482Z,14.20
2023-10-24T09:33:13.292Z,14.19
2023-10-24T09:35:40.342Z,14.23
2023-10-24T09:38:08.432Z,14.20
2023-10-24T09:40:37.603Z,14.26
2023-10-24T09:43:20.088Z,14.28
2023-10-24T09:45:47.776Z,14.46
2023-10-24T09:48:15.985Z,14.63
2023-10-24T09:50:43.356Z,14.66
2023-10-24T09:53:11.300Z,14.77
2023-10-24T09:55:46.968Z,14.78
2023-10-24T09:58:14.414Z,14.72
2023-10-24T10:00:41.763Z,14.70
2023-10-24T10:03:11.010Z,14.72
2023-10-24T10:05:37.860Z,14.70
2023-10-24T10:08:08.727Z,14.74
2023-10-24T10:10:38.341Z,14.92
2023-10-24T10:13:08.847Z,15.09
2023-10-24T10:16:03.574Z,15.06
2023-10-24T10:18:56.324Z,15.29
2023-10-24T10:21:33.977Z,15.38
2023-10-24T10:24:09.414Z,15.32
2023-10-24T10:27:03.667Z,15.48
2023-10-24T10:30:12.786Z,15.65
2023-10-24T10:32:58.256Z,15.66
2023-10-24T10:35:56.342Z,15.74
2023-10-24T10:38:48.464Z,15.73
2023-10-24T10:41:24.168Z,15.64
2023-10-24T10:43:55.258Z,15.65
2023-10-24T10:46:25.115Z,15.43
2023-10-24T10:48:52.180Z,15.39
2023-10-24T10:51:26.001Z,15.22
2023-10-24T10:54:43.813Z,15.25
2023-10-24T10:57:15.903Z,15.17
2023-10-24T10:59:58.678Z,15.05
2023-10-24T11:02:34.261Z,15.17
2023-10-24T11:05:00.945Z,15.26
2023-10-24T11:07:52.587Z,15.19
2023-10-24T11:10:19.825Z,15.19
2023-10-24T11:12:49.645Z,14.80
2023-10-24T11:15:18.037Z,14.93
2023-10-24T11:17:44.944Z,14.91
2023-10-24T11:22:41.328Z,14.64
2023-10-24T11:25:11.791Z,14.62
2023-10-24T11:27:39.478Z,14.64
2023-10-24T11:30:07.532Z,14.46
2023-10-24T11:32:34.919Z,14.41
2023-10-24T11:35:03.660Z,14.49
2023-10-24T11:37:30.400Z,14.33
2023-10-24T11:40:00.292Z,14.39
2023-10-24T11:42:27.781Z,14.30
2023-10-24T11:44:54.471Z,14.25
2023-10-24T11:47:21.052Z,14.28
2023-10-24T11:49:48.174Z,14.40
2023-10-24T11:52:15.075Z,14.44
2023-10-24T11:54:41.814Z,14.34
2023-10-24T11:57:08.734Z,14.30
2023-10-24T11:59:36.619Z,14.29
2023-10-24T12:02:04.803Z,14.09
2023-10-24T12:04:32.168Z,13.99
2023-10-24T12:07:05.458Z,14.00
2023-10-24T12:09:35.939Z,13.96
2023-10-24T12:12:03.675Z,14.01
2023-10-24T12:14:30.258Z,14.03
2023-10-24T12:16:59.932Z,14.05
2023-10-24T12:19:27.121Z,14.04
2023-10-24T12:21:54.998Z,14.00
2023-10-24T12:24:21.610Z,14.11
2023-10-24T12:26:48.707Z,14.13
2023-10-24T12:29:15.295Z,14.10
2023-10-24T12:31:42.065Z,14.06
2023-10-24T12:34:13.750Z,13.96
2023-10-24T12:36:40.380Z,13.84
2023-10-24T12:39:06.908Z,13.82
2023-10-24T12:41:33.454Z,13.87
2023-10-24T12:44:00.616Z,14.01
2023-10-24T12:46:27.412Z,14.02
2023-10-24T12:49:01.563Z,13.97
2023-10-24T12:51:29.402Z,13.88
2023-10-24T12:53:55.930Z,13.85
2023-10-24T12:56:22.567Z,13.89
2023-10-24T12:58:51.763Z,14.02
2023-10-24T13:01:18.907Z,13.92
2023-10-24T13:03:45.663Z,13.93
2023-10-24T13:06:12.349Z,13.88
2023-10-24T13:08:38.915Z,13.77
2023-10-24T13:11:05.637Z,13.77
2023-10-24T13:13:32.264Z,13.75
2023-10-24T13:15:58.906Z,13.66
2023-10-24T13:18:27.736Z,13.72
2023-10-24T13:20:54.294Z,13.75
2023-10-24T13:23:20.776Z,13.77
2023-10-24T13:25:47.773Z,13.75
2023-10-24T13:28:14.318Z,13.64
2023-10-24T13:30:47.088Z,13.56
2023-10-24T13:33:19.422Z,13.51
2023-10-24T13:38:15.265Z,13.52
2023-10-24T13:40:41.798Z,13.55
2023-10-24T13:43:08.347Z,13.55
2023-10-24T13:45:34.966Z,13.58
2023-10-24T13:48:01.467Z,13.55
2023-10-24T13:50:28.181Z,13.57
2023-10-24T13:52:54.758Z,13.49
2023-10-24T13:55:21.318Z,13.43
2023-10-24T13:57:48.117Z,13.34
2023-10-24T14:00:15.200Z,13.38
2023-10-24T14:02:41.846Z,13.47
2023-10-24T14:05:08.891Z,13.50
2023-10-24T14:07:35.559Z,13.49
2023-10-24T14:10:02.081Z,13.45
2023-10-24T14:12:28.627Z,13.51
2023-10-24T14:14:55.181Z,13.33
2023-10-24T14:17:21.693Z,13.22
2023-10-24T14:19:50.252Z,13.04
2023-10-24T14:22:16.874Z,13.00
2023-10-24T14:24:43.359Z,13.00
2023-10-24T14:27:09.920Z,12.98
2023-10-24T14:29:36.789Z,12.97
2023-10-24T14:32:03.611Z,12.97
2023-10-24T14:34:30.202Z,12.94
2023-10-24T14:36:56.985Z,12.96
2023-10-24T14:39:23.502Z,12.97
2023-10-24T14:41:50.768Z,12.93
2023-10-24T14:44:17.384Z,12.92
2023-10-24T14:46:48.501Z,12.89
2023-10-24T14:49:16.994Z,12.86
2023-10-24T14:51:44.481Z,12.78
2023-10-24T14:54:13.962Z,12.82
2023-10-24T14:56:40.370Z,12.81
2023-10-24T14:59:06.921Z,12.75
2023-10-24T15:01:33.482Z,12.70
2023-10-24T15:04:00.059Z,12.71
2023-10-24T15:06:27.591Z,12.70
2023-10-24T15:08:55.281Z,12.65
2023-10-24T15:11:21.837Z,12.59
2023-10-24T15:13:48.459Z,12.55
2023-10-24T15:16:15.074Z,12.50
2023-10-24T15:18:41.961Z,12.47
2023-10-24T15:21:08.584Z,12.45
2023-10-24T15:23:35.418Z,12.44
2023-10-24T15:26:02.631Z,12.47
2023-10-24T15:28:29.197Z,12.41
2023-10-24T15:30:55.755Z,12.39
2023-10-24T15:33:24.340Z,12.41
2023-10-24T15:35:59.134Z,12.42
2023-10-24T15:38:25.784Z,12.38
2023-10-24T15:40:52.504Z,12.33
2023-10-24T15:43:19.165Z,12.32
2023-10-24T15:46:05.790Z,12.29
2023-10-24T15:48:33.008Z,12.25
2023-10-24T15:51:04.460Z,12.14
2023-10-24T15:53:31.762Z,12.21
2023-10-24T15:55:59.608Z,12.20
2023-10-24T15:58:33.078Z,12.15
2023-10-24T16:00:59.775Z,12.15
2023-10-24T16:03:26.471Z,12.15
2023-10-24T16:05:53.625Z,12.12
2023-10-24T16:08:20.264Z,12.09
2023-10-24T16:10:48.340Z,12.09
2023-10-24T16:13:14.981Z,12.09
2023-10-24T16:15:41.592Z,12.07
2023-10-24T16:18:10.106Z,12.04
2023-10-24T16:20:36.727Z,12.02
2023-10-24T16:23:03.964Z,12.02
2023-10-24T16:25:32.429Z,12.01
2023-10-24T16:27:58.946Z,12.01
2023-10-24T16:30:25.618Z,12.01
2023-10-24T16:32:53.789Z,11.99
2023-10-24T16:35:20.588Z,11.98
2023-10-24T16:37:47.194Z,11.98
2023-10-24T16:40:13.764Z,11.98
2023-10-24T16:42:40.261Z,11.96
2023-10-24T16:45:08.012Z,11.97
2023-10-24T16:47:34.538Z,11.93
2023-10-24T16:50:01.230Z,11.92
2023-10-24T16:52:27.840Z,11.84
2023-10-24T16:54:54.381Z,11.87
2023-10-24T16:57:20.905Z,11.87
2023-10-24T16:59:47.383Z,11.75
2023-10-24T17:02:14.160Z,11.80
2023-10-24T17:04:41.040Z,11.80
2023-10-24T17:07:07.794Z,11.74
2023-10-24T17:09:35.854Z,11.69
2023-10-24T17:12:02.790Z,11.67
2023-10-24T17:14:29.327Z,11.50
2023-10-24T17:16:55.911Z,11.49
2023-10-24T17:19:22.511Z,11.51
2023-10-24T17:21:49.072Z,11.63
2023-10-24T17:24:15.584Z,11.63
2023-10-24T17:26:42.105Z,11.64
2023-10-24T17:29:08.651Z,11.63
2023-10-24T17:31:35.354Z,11.59
2023-10-24T17:34:03.136Z,11.53
2023-10-24T17:36:29.588Z,11.47
2023-10-24T17:38:56.118Z,11.47
2023-10-24T17:41:22.742Z,11.47
2023-10-24T17:43:49.297Z,11.50
2023-10-24T17:46:21.662Z,11.51
2023-10-24T17:48:49.579Z,11.50
2023-10-24T17:51:16.073Z,11.51
2023-10-24T17:53:42.696Z,11.50
2023-10-24T17:56:09.231Z,11.49
2023-10-24T17:58:36.544Z,11.43
2023-10-24T18:01:03.941Z,11.42
2023-10-24T18:03:30.513Z,11.37
2023-10-24T18:05:57.160Z,11.40
2023-10-24T18:08:23.670Z,11.43
2023-10-24T18:10:54.299Z,11.44
2023-10-24T18:13:20.864Z,11.46
2023-10-24T18:15:47.395Z,11.48
2023-10-24T18:18:16.169Z,11.41
2023-10-24T18:20:42.730Z,11.49
2023-10-24T18:23:09.479Z,11.49
2023-10-24T18:25:36.071Z,11.49
2023-10-24T18:28:02.586Z,11.50
2023-10-24T18:30:29.069Z,11.52
2023-10-24T18:32:55.659Z,11.52
2023-10-24T18:35:22.334Z,11.52
2023-10-24T18:37:48.957Z,11.50
2023-10-24T18:40:17.317Z,11.43
2023-10-24T18:42:44.845Z,11.35
2023-10-24T18:45:11.438Z,11.27
2023-10-24T18:47:38.030Z,11.23
2023-10-24T18:50:05.033Z,11.08
2023-10-24T18:52:31.585Z,11.18
2023-10-24T18:54:58.125Z,11.16
2023-10-24T18:57:24.709Z,11.14
2023-10-24T19:02:21.629Z,11.13
2023-10-24T19:04:49.701Z,11.17
2023-10-24T19:07:16.310Z,11.17
2023-10-24T19:09:43.173Z,11.29
2023-10-24T19:12:10.613Z,11.33
2023-10-24T19:14:37.554Z,11.33
2023-10-24T19:17:04.462Z,11.25
2023-10-24T19:19:31.208Z,11.28
2023-10-24T19:21:57.947Z,11.29
2023-10-24T19:24:26.505Z,11.24
2023-10-24T19:26:53.949Z,11.34
2023-10-24T19:29:20.821Z,11.33
2023-10-24T19:31:47.672Z,11.35
2023-10-24T19:34:14.472Z,11.37
2023-10-24T19:36:44.363Z,11.38
2023-10-24T19:39:11.373Z,11.38
2023-10-24T19:41:38.135Z,11.29
2023-10-24T19:44:04.961Z,11.39
2023-10-24T19:46:36.749Z,11.39
2023-10-24T19:49:05.097Z,11.40
2023-10-24T19:51:34.361Z,11.40
2023-10-24T19:54:02.790Z,11.46
2023-10-24T19:56:31.937Z,11.47
2023-10-24T19:58:58.869Z,11.46
2023-10-24T20:01:25.777Z,11.40
2023-10-24T20:03:52.752Z,11.50
2023-10-24T20:06:19.641Z,11.47
2023-10-24T20:08:46.382Z,11.44
2023-10-24T20:12:32.821Z,11.40
2023-10-24T20:14:02.059Z,11.34
2023-10-24T20:16:32.207Z,11.33
2023-10-24T20:18:59.367Z,11.36
2023-10-24T20:21:26.459Z,11.33
2023-10-24T20:23:53.476Z,11.28
2023-10-24T20:26:22.236Z,11.37
2023-10-24T20:28:48.748Z,11.39
2023-10-24T20:31:15.507Z,11.42
2023-10-24T20:33:42.163Z,11.43
2023-10-24T20:36:09.334Z,11.44
2023-10-24T20:38:35.984Z,11.44
2023-10-24T20:41:02.592Z,11.43
2023-10-24T20:43:29.089Z,11.41
2023-10-24T20:45:55.636Z,11.48
2023-10-24T20:48:22.228Z,11.50
2023-10-24T20:50:49.182Z,11.50
2023-10-24T20:53:15.780Z,11.51
2023-10-24T20:55:42.449Z,11.53
2023-10-24T20:58:09.074Z,11.53
2023-10-24T21:00:35.714Z,11.54
2023-10-24T21:03:03.662Z,11.50
2023-10-24T21:05:30.275Z,11.52
2023-10-24T21:07:57.433Z,11.53
2023-10-24T21:10:23.980Z,11.55
2023-10-24T21:12:51.791Z,11.54
2023-10-24T21:15:18.505Z,11.51
2023-10-24T21:17:46.228Z,11.55
2023-10-24T21:20:13.087Z,11.52
2023-10-24T21:22:39.705Z,11.53
2023-10-24T21:25:06.886Z,11.52
2023-10-24T21:27:33.406Z,11.51
2023-10-24T21:29:59.938Z,11.51
2023-10-24T21:32:26.485Z,11.50
2023-10-24T21:34:53.169Z,11.51
2023-10-24T21:37:19.764Z,11.49
2023-10-24T21:39:46.323Z,11.51
2023-10-24T21:42:12.955Z,11.52
2023-10-24T21:44:47.091Z,11.53
2023-10-24T21:47:17.321Z,11.56
2023-10-24T21:49:43.922Z,11.57
2023-10-24T21:52:10.518Z,11.54
2023-10-24T21:54:37.244Z,11.57
2023-10-24T21:57:04.028Z,11.59
2023-10-24T21:59:30.554Z,11.60
2023-10-24T22:01:57.118Z,11.62
2023-10-24T22:04:23.758Z,11.58
2023-10-24T22:06:50.280Z,11.60
2023-10-24T22:09:16.838Z,11.62
2023-10-24T22:11:43.371Z,11.55
2023-10-24T22:14:09.901Z,11.62
2023-10-24T22:16:36.506Z,11.61
2023-10-24T22:19:03.105Z,11.62
2023-10-24T22:21:29.886Z,11.67
2023-10-24T22:23:56.442Z,11.67
2023-10-24T22:26:23.007Z,11.64
2023-10-24T22:28:49.531Z,11.57
2023-10-24T22:31:16.214Z,11.61
2023-10-24T22:33:42.940Z,11.61
2023-10-24T22:36:09.490Z,11.52
2023-10-24T22:38:35.992Z,11.60
2023-10-24T22:41:02.580Z,11.60
2023-10-24T22:43:29.321Z,11.61
2023-10-24T22:45:55.920Z,11.59
2023-10-24T22:48:22.502Z,11.59
2023-10-24T22:50:49.076Z,11.57
2023-10-24T22:53:15.587Z,11.63
2023-10-24T22:55:42.097Z,11.63
2023-10-24T22:58:08.665Z,11.64
2023-10-24T23:00:35.286Z,11.57
2023-10-24T23:03:01.998Z,11.62
2023-10-24T23:05:28.559Z,11.57
2023-10-24T23:07:55.079Z,11.58
2023-10-24T23:10:21.624Z,11.58
2023-10-24T23:12:48.176Z,11.59
2023-10-24T23:15:14.807Z,11.59
2023-10-24T23:17:41.334Z,11.55
2023-10-24T23:20:09.125Z,11.57
2023-10-24T23:22:35.678Z,11.57
2023-10-24T23:25:02.219Z,11.55
2023-10-24T23:27:31.160Z,11.54
2023-10-24T23:29:57.690Z,11.50
2023-10-24T23:32:24.167Z,11.54
2023-10-24T23:34:50.665Z,11.54
2023-10-24T23:37:17.261Z,11.55
2023-10-24T23:39:43.871Z,11.50
2023-10-24T23:42:11.262Z,11.53
2023-10-24T23:44:37.822Z,11.52
2023-10-24T23:47:04.578Z,11.47
2023-10-24T23:49:31.286Z,11.54
2023-10-24T23:51:57.857Z,11.52
2023-10-24T23:54:24.372Z,11.52
2023-10-24T23:56:50.881Z,11.50
2023-10-24T23:59:17.418Z,11.48
